Time;durP1;ratioP1;P1;durP2;ratioP2;P2;SDS_P1;SDS_P2;PMS_P1;PMS_P2;Temp;Humidity;BMP_temperature;BMP_pressure;BME280_temperature;BME280_humidity;BME280_pressure;Samples;Min_cycle;Max_cycle;Signal;HPM_P1;HPM_P2
2022/06/11 00:01:24;;;;;;;;;;;20.20;67.40;;;19.49;62.87;96020.31;4182047;33;19903;-86
2022/06/11 00:03:55;;;;;;;;;;;20.20;67.50;;;19.49;62.70;96015.56;4206643;33;19982;-86
2022/06/11 00:06:23;;;;;;;;;;;20.20;67.50;;;19.48;63.01;96008.38;4205623;33;19961;-86
2022/06/11 00:08:54;;;;;;;;;;;20.10;67.40;;;19.47;63.01;96009.53;4229070;33;20065;-86
2022/06/11 00:11:23;;;;;;;;;;;20.10;67.50;;;19.48;62.88;96008.38;4182220;33;20106;-86
2022/06/11 00:13:51;;;;;;;;;;;20.10;67.50;;;19.47;62.81;96006.75;4182530;33;19909;-86
2022/06/11 00:16:22;;;;;;;;;;;20.10;67.50;;;19.47;62.84;96012.31;4206256;33;19903;-86
2022/06/11 00:18:51;;;;;;;;;;;20.10;67.40;;;19.47;62.80;96012.31;4262270;33;19901;-86
2022/06/11 00:22:26;;;;;;;;;;;20.10;67.50;;;19.47;62.88;96009.53;4237401;33;20146;-86
2022/06/11 00:25:23;;;;;;;;;;;20.10;67.50;;;19.46;63.16;96010.66;4239799;33;19908;-85
2022/06/11 00:27:52;;;;;;;;;;;20.10;67.50;;;19.45;62.91;96009.03;4235866;33;20096;-84
2022/06/11 00:30:21;;;;;;;;;;;20.10;67.50;;;19.46;62.65;96016.22;4237868;33;19909;-86
2022/06/11 00:32:50;;;;;;;;;;;20.10;67.50;;;19.46;62.74;96010.66;4242350;33;19902;-86
2022/06/11 00:35:18;;;;;;;;;;;20.10;67.60;;;19.45;62.90;96000.72;4182244;33;20025;-85
2022/06/11 00:37:47;;;;;;;;;;;20.10;67.60;;;19.44;63.03;96010.19;4182291;33;20052;-86
2022/06/11 00:40:16;;;;;;;;;;;20.10;67.60;;;19.45;62.75;96001.53;4204789;33;19909;-86
2022/06/11 00:42:47;;;;;;;;;;;20.10;67.50;;;19.45;63.19;96009.03;4205342;33;19906;-86
2022/06/11 00:45:24;;;;;;;;;;;20.10;67.50;;;19.45;62.72;95998.75;4182125;33;19903;-86
2022/06/11 00:47:58;;;;;;;;;;;20.10;67.60;;;19.46;62.86;96013.44;4182268;33;19914;-85
2022/06/11 00:50:30;;;;;;;;;;;20.10;67.60;;;19.45;62.99;95997.94;4205787;33;20126;-85
2022/06/11 00:53:01;;;;;;;;;;;20.10;67.60;;;19.44;62.79;95999.91;4205297;33;19965;-85
2022/06/11 00:55:33;;;;;;;;;;;20.10;67.60;;;19.44;62.77;96002.69;4228704;33;19903;-85
2022/06/11 00:58:06;;;;;;;;;;;20.10;67.60;;;19.43;62.98;96001.06;4228860;33;19902;-85
2022/06/11 01:00:38;;;;;;;;;;;20.10;67.60;;;19.43;62.90;96012.16;4237525;33;19902;-86
2022/06/11 01:03:07;;;;;;;;;;;20.10;67.60;;;19.44;63.06;96007.41;4238069;33;19902;-86
2022/06/11 01:05:39;;;;;;;;;;;20.10;67.60;;;19.43;63.07;96000.22;4261873;33;20347;-86
2022/06/11 01:08:39;;;;;;;;;;;20.10;67.60;;;19.42;63.22;95999.44;4238076;33;20110;-84
2022/06/11 01:11:52;;;;;;;;;;;20.10;67.60;;;19.42;62.89;95988.31;4237401;33;19902;-85
2022/06/11 01:14:37;;;;;;;;;;;20.10;67.60;;;19.41;62.94;95992.25;4261778;33;19924;-86
2022/06/11 01:17:14;;;;;;;;;;;20.10;67.60;;;19.41;63.07;95997.00;4261688;33;20074;-86
2022/06/11 01:20:23;;;;;;;;;;;20.10;67.60;;;19.42;62.88;95990.28;4261737;33;19902;-86
2022/06/11 01:23:41;;;;;;;;;;;20.10;67.60;;;19.41;62.95;95997.00;4261667;33;19909;-86
2022/06/11 01:26:34;;;;;;;;;;;20.10;67.60;;;19.40;63.25;95990.59;4261509;33;20132;-85
2022/06/11 01:29:23;;;;;;;;;;;20.10;67.70;;;19.41;63.01;95985.88;4238384;33;20135;-86
2022/06/11 01:31:54;;;;;;;;;;;20.10;67.70;;;19.42;63.17;95993.06;4204446;33;20154;-85
2022/06/11 01:34:27;;;;;;;;;;;20.10;67.70;;;19.40;63.22;95996.16;4204874;33;19922;-86
2022/06/11 01:37:01;;;;;;;;;;;20.10;67.80;;;19.41;63.01;95994.22;4204821;33;19903;-85
2022/06/11 01:39:36;;;;;;;;;;;20.10;67.70;;;19.42;63.11;96004.19;4205658;33;19903;-85
2022/06/11 01:42:12;;;;;;;;;;;20.10;67.70;;;19.41;63.10;96002.53;4204309;33;19907;-85
2022/06/11 01:44:44;;;;;;;;;;;20.10;67.80;;;19.40;63.11;96006.47;4204735;33;20354;-86
2022/06/11 01:47:13;;;;;;;;;;;20.10;67.80;;;19.39;63.12;96005.63;4181404;33;19907;-85
2022/06/11 01:49:44;;;;;;;;;;;20.00;67.60;;;19.39;63.22;96007.59;4205588;33;20033;-85
2022/06/11 01:52:46;;;;;;;;;;;20.10;67.80;;;19.40;63.25;95995.38;4204456;33;19910;-85
2022/06/11 01:55:19;;;;;;;;;;;20.10;67.80;;;19.39;63.08;96004.84;4169011;33;20157;-86
2022/06/11 01:58:20;;;;;;;;;;;20.10;67.80;;;19.40;63.13;96017.56;4181374;33;19903;-86
2022/06/11 02:00:54;;;;;;;;;;;20.10;67.90;;;19.39;63.30;96008.41;4204331;33;20362;-85
2022/06/11 02:03:36;;;;;;;;;;;20.10;67.90;;;19.38;63.55;96003.19;4204560;33;19903;-86
2022/06/11 02:06:29;;;;;;;;;;;20.10;67.80;;;19.38;63.15;96001.22;4205445;33;19903;-85
2022/06/11 02:09:11;;;;;;;;;;;20.00;67.70;;;19.38;63.06;96000.44;4205507;33;19913;-85
2022/06/11 02:11:44;;;;;;;;;;;20.00;67.80;;;19.38;63.22;96003.19;4206480;33;19903;-86
2022/06/11 02:14:17;;;;;;;;;;;20.00;67.80;;;19.38;63.12;96008.75;4207879;33;19902;-85
2022/06/11 02:16:51;;;;;;;;;;;20.00;67.80;;;19.38;63.34;96014.31;4183782;33;19903;-85
2022/06/11 02:19:25;;;;;;;;;;;20.00;67.80;;;19.37;63.23;96013.47;4230399;33;20281;-86
2022/06/11 02:21:57;;;;;;;;;;;20.00;67.80;;;19.37;63.42;96007.13;4206377;33;20354;-85
2022/06/11 02:24:29;;;;;;;;;;;20.00;67.80;;;19.37;63.05;96015.44;4183701;33;19910;-85
2022/06/11 02:27:01;;;;;;;;;;;20.00;67.80;;;19.37;63.03;96023.78;4206852;33;20024;-86
2022/06/11 02:29:33;;;;;;;;;;;20.00;67.80;;;19.38;63.42;96014.31;4183713;33;19902;-85
2022/06/11 02:32:10;;;;;;;;;;;20.00;67.80;;;19.36;63.43;96009.09;4183342;33;20317;-85
2022/06/11 02:34:40;;;;;;;;;;;20.00;67.90;;;19.37;63.29;96015.44;4206807;33;19954;-85
2022/06/11 02:37:10;;;;;;;;;;;20.00;67.90;;;19.37;63.21;96012.69;4206598;33;19910;-85
2022/06/11 02:39:41;;;;;;;;;;;20.00;68.00;;;19.36;63.40;96017.44;4206688;33;19910;-85
2022/06/11 02:42:14;;;;;;;;;;;20.00;68.00;;;19.35;63.22;96020.50;4206255;33;20020;-85
2022/06/11 02:44:43;;;;;;;;;;;20.00;68.00;;;19.36;63.73;96017.44;4206790;33;20031;-87
2022/06/11 02:47:13;;;;;;;;;;;20.00;68.00;;;19.36;63.38;96024.91;4205741;33;19958;-85
2022/06/11 02:49:42;;;;;;;;;;;20.00;68.00;;;19.35;63.50;96020.50;4205988;33;19910;-85
2022/06/11 02:52:15;;;;;;;;;;;20.00;68.00;;;19.36;63.54;96027.69;4229758;33;19962;-85
2022/06/11 02:54:44;;;;;;;;;;;20.00;68.00;;;19.36;63.45;96031.31;4207576;33;20053;-85
2022/06/11 02:57:15;;;;;;;;;;;20.00;68.20;;;19.35;63.40;96035.22;4229863;33;20270;-85
2022/06/11 02:59:43;;;;;;;;;;;20.00;68.10;;;19.34;63.69;96029.97;4206516;33;20244;-85
2022/06/11 03:02:14;;;;;;;;;;;20.00;68.10;;;19.35;63.38;96043.56;4182904;33;19910;-86
2022/06/11 03:04:42;;;;;;;;;;;20.00;68.00;;;19.37;63.66;96034.88;4206434;33;20151;-86
2022/06/11 03:07:11;;;;;;;;;;;20.00;68.10;;;19.36;63.54;96038.81;4206256;33;19909;-86
2022/06/11 03:09:40;;;;;;;;;;;20.00;68.10;;;19.35;63.68;96035.22;4206301;33;20014;-86
2022/06/11 03:12:10;;;;;;;;;;;20.00;68.10;;;19.34;63.51;96041.91;4182936;33;20075;-85
2022/06/11 03:14:39;;;;;;;;;;;20.00;68.10;;;19.36;63.44;96044.34;4207291;33;20222;-86
2022/06/11 03:17:08;;;;;;;;;;;20.00;68.10;;;19.36;63.54;96047.13;4229613;33;19903;-85
2022/06/11 03:19:38;;;;;;;;;;;20.00;68.10;;;19.35;63.30;96048.28;4213507;33;19918;-86
2022/06/11 03:22:07;;;;;;;;;;;20.00;68.10;;;19.34;63.79;96039.16;4238611;33;20143;-85
2022/06/11 03:24:36;;;;;;;;;;;20.00;68.20;;;19.36;63.69;96038.81;4262959;33;19901;-87
2022/06/11 03:27:06;;;;;;;;;;;20.00;68.30;;;19.35;63.60;96037.16;4262892;33;19902;-85
2022/06/11 03:29:34;;;;;;;;;;;20.00;68.10;;;19.34;63.48;96043.88;4239053;33;19924;-85
2022/06/11 03:32:04;;;;;;;;;;;20.00;68.20;;;19.35;63.66;96039.94;4238790;33;20060;-86
2022/06/11 03:34:33;;;;;;;;;;;20.00;68.20;;;19.36;63.33;96049.91;4238998;33;20114;-86
2022/06/11 03:37:04;;;;;;;;;;;20.00;68.10;;;19.36;63.42;96047.13;4206056;33;19913;-86
2022/06/11 03:39:32;;;;;;;;;;;20.00;68.10;;;19.37;63.30;96057.09;4182867;33;19902;-85
2022/06/11 03:42:01;;;;;;;;;;;20.00;68.10;;;19.34;63.18;96049.41;4205660;33;20079;-85
2022/06/11 03:44:30;;;;;;;;;;;20.00;68.10;;;19.37;63.42;96051.53;4182925;33;19910;-85
2022/06/11 03:46:58;;;;;;;;;;;20.00;68.10;;;19.33;63.42;96051.38;4205901;33;19903;-86
2022/06/11 03:49:27;;;;;;;;;;;20.00;68.10;;;19.36;63.50;96049.91;4182798;33;19997;-86
2022/06/11 03:51:56;;;;;;;;;;;20.00;68.10;;;19.36;63.55;96058.22;4258330;33;19952;-86
2022/06/11 03:54:26;;;;;;;;;;;20.00;68.10;;;19.36;63.36;96056.28;4238747;33;19902;-86
2022/06/11 03:56:55;;;;;;;;;;;20.00;68.10;;;19.35;63.37;96054.66;4238757;33;20322;-86
2022/06/11 03:59:24;;;;;;;;;;;20.00;68.10;;;19.36;63.62;96058.22;4238765;33;20174;-85
2022/06/11 04:01:52;;;;;;;;;;;20.00;68.00;;;19.37;63.22;96057.09;4238246;33;20021;-86
2022/06/11 04:04:21;;;;;;;;;;;20.00;68.00;;;19.36;63.37;96052.69;4238554;33;19902;-86
2022/06/11 04:06:52;;;;;;;;;;;20.00;68.00;;;19.35;63.41;96059.38;4262356;33;19995;-86
2022/06/11 04:09:24;;;;;;;;;;;20.00;68.00;;;19.37;63.60;96057.09;4238686;33;19924;-86
2022/06/11 04:11:55;;;;;;;;;;;20.00;68.00;;;19.36;63.32;96064.63;4262153;33;20161;-86
2022/06/11 04:14:23;;;;;;;;;;;20.00;67.90;;;19.37;63.31;96062.63;4262488;33;19902;-85
2022/06/11 04:16:54;;;;;;;;;;;20.00;68.00;;;19.36;63.31;96061.00;4238410;33;19909;-86
2022/06/11 04:19:24;;;;;;;;;;;20.00;68.00;;;19.37;63.08;96063.44;4238713;33;20000;-86
2022/06/11 04:21:56;;;;;;;;;;;20.00;67.90;;;19.38;63.56;96070.63;4237865;33;19902;-85
2022/06/11 04:24:25;;;;;;;;;;;20.00;67.90;;;19.37;63.49;96070.97;4238436;33;20358;-86
2022/06/11 04:26:56;;;;;;;;;;;20.10;68.10;;;19.37;63.36;96063.44;4216548;33;20076;-86
2022/06/11 04:29:29;;;;;;;;;;;20.10;68.20;;;19.38;63.56;96070.63;4182383;33;20392;-86
2022/06/11 04:31:59;;;;;;;;;;;20.10;68.10;;;19.38;63.33;96081.72;4181817;33;20147;-85
2022/06/11 04:34:29;;;;;;;;;;;20.10;68.10;;;19.39;63.53;96082.56;4205569;33;19903;-86
2022/06/11 04:36:58;;;;;;;;;;;20.10;68.10;;;19.38;63.27;96067.84;4182076;33;20095;-85
2022/06/11 04:39:29;;;;;;;;;;;20.00;68.10;;;19.37;63.70;96068.19;4205490;33;20072;-85
2022/06/11 04:41:59;;;;;;;;;;;20.10;68.10;;;19.37;63.38;96074.53;4204909;33;20072;-86
2022/06/11 04:44:28;;;;;;;;;;;20.00;68.00;;;19.38;63.30;96075.38;4205410;33;20198;-85
2022/06/11 04:46:57;;;;;;;;;;;20.00;68.10;;;19.39;63.47;96082.56;4182041;33;19920;-86
2022/06/11 04:49:25;;;;;;;;;;;20.00;68.10;;;19.38;63.57;96075.38;4182018;33;19909;-86
2022/06/11 04:51:54;;;;;;;;;;;20.00;68.10;;;19.39;63.35;96071.47;4204616;33;19902;-87
2022/06/11 04:54:23;;;;;;;;;;;20.10;68.10;;;19.39;63.48;96088.09;4205324;33;19944;-86
2022/06/11 04:56:51;;;;;;;;;;;20.00;68.00;;;19.38;63.58;96092.84;4181972;33;19911;-87
2022/06/11 04:59:22;;;;;;;;;;;20.00;68.10;;;19.38;63.62;96086.47;4206245;33;20218;-86
2022/06/11 05:01:51;;;;;;;;;;;20.00;68.30;;;19.38;63.80;96081.72;4181676;33;19903;-85
2022/06/11 05:04:19;;;;;;;;;;;20.00;68.40;;;19.39;63.89;96088.09;4205398;33;20160;-86
2022/06/11 05:06:48;;;;;;;;;;;20.10;68.60;;;19.39;63.90;96088.09;4204897;33;20097;-86
2022/06/11 05:09:18;;;;;;;;;;;20.10;68.70;;;19.39;64.07;96085.34;4205170;33;19909;-86
2022/06/11 05:11:47;;;;;;;;;;;20.10;68.60;;;19.38;63.88;96090.06;4204408;33;20158;-86
2022/06/11 05:14:16;;;;;;;;;;;20.00;68.70;;;19.37;63.95;96085.66;4181869;33;20218;-86
2022/06/11 05:16:47;;;;;;;;;;;20.10;68.60;;;19.39;63.95;96088.09;4204414;33;19902;-86
2022/06/11 05:19:18;;;;;;;;;;;20.10;68.70;;;19.39;64.11;96091.69;4182055;33;20218;-85
2022/06/11 05:21:47;;;;;;;;;;;20.10;68.70;;;19.38;63.82;96097.59;4181314;33;20110;-86
2022/06/11 05:24:16;;;;;;;;;;;20.10;68.80;;;19.38;64.20;96092.84;4181765;33;19903;-86
2022/06/11 05:26:50;;;;;;;;;;;20.10;68.90;;;19.38;63.95;96094.81;4181626;33;20169;-85
2022/06/11 05:29:23;;;;;;;;;;;20.10;68.80;;;19.39;64.24;96099.22;4181839;33;19903;-85
2022/06/11 05:31:54;;;;;;;;;;;20.10;68.90;;;19.38;63.91;96090.06;4204727;33;19926;-85
2022/06/11 05:34:22;;;;;;;;;;;20.00;68.80;;;19.39;64.19;96096.44;4205877;33;20102;-85
2022/06/11 05:36:51;;;;;;;;;;;20.10;68.80;;;19.39;64.19;96093.66;4204643;33;20091;-86
2022/06/11 05:39:20;;;;;;;;;;;20.00;68.70;;;19.38;64.05;96089.25;4181787;33;20245;-85
2022/06/11 05:41:49;;;;;;;;;;;20.10;68.90;;;19.38;64.11;96094.81;4203465;33;19903;-85
2022/06/11 05:44:18;;;;;;;;;;;20.10;68.90;;;19.40;64.18;96101.66;4206011;33;19962;-85
2022/06/11 05:46:46;;;;;;;;;;;20.10;69.00;;;19.39;64.28;96096.44;4208272;33;20115;-85
2022/06/11 05:49:19;;;;;;;;;;;20.10;69.10;;;19.39;64.13;96099.22;4240127;33;20264;-86
2022/06/11 05:51:52;;;;;;;;;;;20.10;69.10;;;19.39;64.21;96100.00;4239721;33;20214;-86
2022/06/11 05:54:26;;;;;;;;;;;20.10;69.10;;;19.40;64.26;96100.84;4184004;33;19910;-86
2022/06/11 05:56:55;;;;;;;;;;;20.00;69.10;;;19.40;64.59;96107.19;4183908;33;19928;-86
2022/06/11 05:59:27;;;;;;;;;;;20.10;69.20;;;19.40;64.30;96106.41;4207114;33;20428;-86
2022/06/11 06:01:56;;;;;;;;;;;20.10;69.20;;;19.40;64.40;96106.41;4206709;33;19902;-85
2022/06/11 06:04:26;;;;;;;;;;;20.10;69.10;;;19.40;64.44;96111.94;4239049;33;20042;-85
2022/06/11 06:06:55;;;;;;;;;;;20.10;69.40;;;19.41;64.66;96121.91;4263851;33;19909;-85
2022/06/11 06:09:26;;;;;;;;;;;20.10;69.30;;;19.42;64.61;96115.22;4239961;33;19909;-85
2022/06/11 06:12:16;;;;;;;;;;;20.10;69.30;;;19.40;64.20;96115.53;4263478;33;19901;-85
2022/06/11 06:14:45;;;;;;;;;;;20.10;69.20;;;19.42;64.56;96121.56;4264003;33;20113;-85
2022/06/11 06:17:16;;;;;;;;;;;20.10;69.30;;;19.42;64.60;96120.75;4239779;33;19902;-85
2022/06/11 06:19:46;;;;;;;;;;;20.10;69.20;;;19.41;64.43;96124.69;4239804;33;20149;-85
2022/06/11 06:22:15;;;;;;;;;;;20.10;69.40;;;19.44;64.40;96115.69;4239670;33;20035;-85
2022/06/11 06:24:47;;;;;;;;;;;20.10;69.10;;;19.44;64.21;96122.06;4263598;33;20324;-86
2022/06/11 06:27:16;;;;;;;;;;;20.10;69.20;;;19.43;64.46;96119.59;4239642;33;19913;-86
2022/06/11 06:29:44;;;;;;;;;;;20.10;69.20;;;19.45;64.26;96122.84;4239689;33;20133;-85
2022/06/11 06:32:13;;;;;;;;;;;20.10;69.00;;;19.46;64.38;96127.28;4263061;33;19996;-85
2022/06/11 06:34:42;;;;;;;;;;;20.10;69.10;;;19.45;64.57;96123.69;4209466;33;20247;-86
2022/06/11 06:37:12;;;;;;;;;;;20.10;69.20;;;19.47;63.98;96123.34;4206400;33;20249;-85
2022/06/11 06:39:41;;;;;;;;;;;20.10;69.10;;;19.49;64.38;96125.81;4206807;33;20250;-85
2022/06/11 06:42:11;;;;;;;;;;;20.20;69.10;;;19.49;64.55;96123.84;4183204;33;20218;-85
2022/06/11 06:44:39;;;;;;;;;;;20.10;69.40;;;19.50;64.79;96122.69;4206654;33;20254;-85
2022/06/11 06:47:08;;;;;;;;;;;20.20;69.30;;;19.51;64.38;96121.56;4207400;33;19964;-86
2022/06/11 06:49:37;;;;;;;;;;;20.20;69.20;;;19.50;64.50;96127.41;4229989;33;20000;-86
2022/06/11 06:52:07;;;;;;;;;;;20.20;69.20;;;19.51;64.42;96132.66;4182967;33;19976;-86
2022/06/11 06:54:37;;;;;;;;;;;20.20;69.00;;;19.52;64.32;96134.28;4270165;33;20018;-83
2022/06/11 06:57:06;;;;;;;;;;;20.20;68.90;;;19.53;64.26;96124.81;4239121;33;19909;-84
2022/06/11 06:59:35;;;;;;;;;;;20.20;69.00;;;19.52;64.48;96128.75;4239305;33;19924;-85
2022/06/11 07:02:04;;;;;;;;;;;20.20;69.20;;;19.53;64.07;96124.81;4262641;33;19963;-85
2022/06/11 07:04:38;;;;;;;;;;;20.20;68.80;;;19.54;64.18;96120.91;4239409;33;19902;-86
2022/06/11 07:07:07;;;;;;;;;;;20.20;68.60;;;19.54;64.31;96125.63;4239371;33;20512;-86
2022/06/11 07:09:37;;;;;;;;;;;20.20;69.10;;;19.53;63.90;96127.59;4262187;33;19902;-87
2022/06/11 07:12:07;;;;;;;;;;;20.20;68.50;;;19.56;64.04;96126.91;4262757;33;20404;-86
2022/06/11 07:14:36;;;;;;;;;;;20.20;68.50;;;19.58;64.49;96130.19;4263142;33;20064;-87
2022/06/11 07:17:06;;;;;;;;;;;20.30;70.20;;;19.57;64.63;96134.09;4262956;33;20199;-86
2022/06/11 07:19:40;;;;;;;;;;;20.30;69.40;;;19.59;64.33;96140.13;4263989;33;19909;-86
2022/06/11 07:22:10;;;;;;;;;;;20.30;69.30;;;19.58;64.65;96135.72;4262586;33;19909;-86
2022/06/11 07:24:41;;;;;;;;;;;20.30;69.40;;;19.60;64.62;96138.19;4262894;33;20045;-86
2022/06/11 07:27:12;;;;;;;;;;;20.30;69.40;;;19.60;64.60;96141.78;4262829;33;19952;-86
2022/06/11 07:29:44;;;;;;;;;;;20.30;69.40;;;19.60;64.56;96139.00;4243714;33;19903;-86
2022/06/11 07:32:15;;;;;;;;;;;20.30;69.40;;;19.61;64.54;96143.41;4206805;33;19903;-86
2022/06/11 07:34:44;;;;;;;;;;;20.30;69.40;;;19.60;64.27;96144.56;4206152;33;19958;-86
2022/06/11 07:37:12;;;;;;;;;;;20.20;69.10;;;19.62;64.71;96152.56;4206071;33;19964;-87
2022/06/11 07:39:43;;;;;;;;;;;20.30;69.40;;;19.61;64.57;96150.94;4206164;33;19903;-86
2022/06/11 07:42:13;;;;;;;;;;;20.30;69.40;;;19.61;64.63;96151.75;4182559;33;20047;-86
2022/06/11 07:44:41;;;;;;;;;;;20.30;69.40;;;19.60;64.30;96147.31;4182945;33;20587;-86
2022/06/11 07:47:10;;;;;;;;;;;20.30;69.30;;;19.61;64.27;96143.41;4182681;33;20215;-87
2022/06/11 07:49:39;;;;;;;;;;;20.30;69.20;;;19.62;64.53;96147.03;4201984;33;20158;-87
2022/06/11 07:52:08;;;;;;;;;;;20.30;69.20;;;19.62;64.37;96147.03;4238414;33;20429;-86
2022/06/11 07:54:36;;;;;;;;;;;20.30;69.10;;;19.62;64.57;96142.25;4262670;33;20217;-86
2022/06/11 07:57:07;;;;;;;;;;;20.30;69.30;;;19.61;64.55;96140.63;4238817;33;20140;-86
2022/06/11 07:59:35;;;;;;;;;;;20.30;69.30;;;19.63;64.44;96143.91;4238747;33;19902;-86
2022/06/11 08:02:05;;;;;;;;;;;20.30;69.20;;;19.66;64.37;96155.50;4238307;33;20455;-86
2022/06/11 08:04:34;;;;;;;;;;;20.30;69.20;;;19.65;64.31;96153.84;4238663;33;20008;-86
2022/06/11 08:07:03;;;;;;;;;;;20.30;69.20;;;19.66;64.52;96147.97;4238453;33;20022;-86
2022/06/11 08:09:31;;;;;;;;;;;20.30;69.00;;;19.67;64.43;96148.78;4238468;33;19901;-86
2022/06/11 08:12:00;;;;;;;;;;;20.30;69.10;;;19.66;64.53;96153.53;4261958;33;19905;-86
2022/06/11 08:14:30;;;;;;;;;;;20.30;69.10;;;19.67;64.31;96148.78;4238602;33;20123;-86
2022/06/11 08:17:00;;;;;;;;;;;20.30;68.90;;;19.66;64.38;96155.50;4238595;33;20013;-87
2022/06/11 08:19:29;;;;;;;;;;;20.30;69.00;;;19.65;64.17;96139.97;4262396;33;19908;-86
2022/06/11 08:21:58;;;;;;;;;;;20.30;68.80;;;19.67;64.04;96148.78;4261792;33;19912;-86
2022/06/11 08:24:26;;;;;;;;;;;20.40;69.00;;;19.70;64.33;96137.00;4238626;33;20308;-86
2022/06/11 08:26:55;;;;;;;;;;;20.40;68.90;;;19.70;64.52;96142.56;4262033;33;19909;-86
2022/06/11 08:29:24;;;;;;;;;;;20.40;69.10;;;19.70;64.52;96143.38;4262319;33;19956;-86
2022/06/11 08:31:54;;;;;;;;;;;20.40;69.10;;;19.73;64.16;96141.91;4261985;33;19911;-86
2022/06/11 08:34:23;;;;;;;;;;;20.40;69.10;;;19.74;64.33;96137.97;4262258;33;19902;-86
2022/06/11 08:36:52;;;;;;;;;;;20.40;69.10;;;19.73;64.35;96137.19;4262192;33;19909;-86
2022/06/11 08:39:26;;;;;;;;;;;20.40;69.00;;;19.74;64.42;96124.09;4238391;33;19902;-85
2022/06/11 08:41:56;;;;;;;;;;;20.40;69.10;;;19.77;64.24;96129.78;4261789;33;19902;-86
2022/06/11 08:44:25;;;;;;;;;;;20.40;68.90;;;19.78;64.32;96125.06;4238377;33;20133;-86
2022/06/11 08:46:56;;;;;;;;;;;20.50;69.10;;;19.80;64.08;96128.34;4236454;33;20137;-85
2022/06/11 08:49:29;;;;;;;;;;;20.50;69.00;;;19.81;64.09;96127.19;4233494;33;19902;-85
2022/06/11 08:52:00;;;;;;;;;;;20.40;68.80;;;19.82;63.80;96126.00;4232917;33;19909;-85
2022/06/11 08:54:32;;;;;;;;;;;20.50;68.80;;;19.85;64.08;96124.56;4233223;33;19909;-85
2022/06/11 08:57:11;;;;;;;;;;;20.50;68.90;;;19.86;63.90;96123.41;4233181;33;19909;-86
2022/06/11 09:00:02;;;;;;;;;;;20.50;68.80;;;19.88;63.92;96115.59;4233398;33;20124;-86
2022/06/11 09:03:06;;;;;;;;;;;20.50;68.80;;;19.89;63.81;96115.25;4209930;33;20053;-86
2022/06/11 09:06:04;;;;;;;;;;;20.60;68.70;;;19.93;63.80;96107.06;4234935;33;19901;-85
2022/06/11 09:09:01;;;;;;;;;;;20.60;68.50;;;19.96;63.82;96111.94;4237878;33;20141;-85
2022/06/11 09:11:44;;;;;;;;;;;20.60;68.40;;;19.99;63.74;96102.13;4237736;33;19901;-86
2022/06/11 09:14:28;;;;;;;;;;;20.70;68.30;;;20.03;63.47;96100.31;4238095;33;19901;-86
2022/06/11 09:17:10;;;;;;;;;;;20.70;68.00;;;20.03;63.51;96100.31;4241389;33;19907;-86
2022/06/11 09:19:53;;;;;;;;;;;20.70;68.00;;;20.06;63.04;96105.22;4232552;33;19902;-87
2022/06/11 09:22:34;;;;;;;;;;;20.70;67.80;;;20.06;63.27;96100.44;4209868;33;19903;-86
2022/06/11 09:25:29;;;;;;;;;;;20.80;68.00;;;20.07;63.47;96102.09;4209529;33;19997;-86
2022/06/11 09:28:01;;;;;;;;;;;20.80;67.90;;;20.08;63.27;96102.88;4233064;33;19909;-86
2022/06/11 09:30:35;;;;;;;;;;;20.80;68.50;;;20.08;63.01;96094.53;4232579;33;19902;-85
2022/06/11 09:33:07;;;;;;;;;;;20.80;67.70;;;20.09;63.36;96107.28;4237881;33;20041;-85
2022/06/11 09:35:39;;;;;;;;;;;20.80;67.80;;;20.06;63.37;96094.09;4237355;33;19902;-86
2022/06/11 09:38:15;;;;;;;;;;;20.80;67.90;;;20.05;63.43;96098.81;4232835;33;20150;-86
2022/06/11 09:40:49;;;;;;;;;;;20.70;67.70;;;20.03;63.50;96092.78;4205569;33;20159;-87
2022/06/11 09:43:35;;;;;;;;;;;20.70;67.80;;;20.02;63.30;96093.13;4236758;33;19901;-86
2022/06/11 09:46:10;;;;;;;;;;;20.70;67.90;;;20.02;63.18;96093.13;4237504;33;20141;-85
2022/06/11 09:48:48;;;;;;;;;;;20.70;67.90;;;20.02;63.54;96093.13;4261395;33;19902;-85
2022/06/11 09:51:24;;;;;;;;;;;20.70;67.90;;;20.03;63.15;96083.63;4262007;33;19902;-86
2022/06/11 09:54:06;;;;;;;;;;;20.80;67.70;;;20.07;63.10;96087.38;4262636;33;19902;-85
2022/06/11 09:56:38;;;;;;;;;;;20.80;67.90;;;20.07;63.29;96084.59;4237513;33;19908;-86
2022/06/11 09:59:24;;;;;;;;;;;20.80;67.70;;;20.03;63.33;96083.63;4261587;33;19901;-86
2022/06/11 10:01:57;;;;;;;;;;;20.80;67.70;;;20.04;63.08;96090.81;4260993;33;20048;-86
2022/06/11 10:04:29;;;;;;;;;;;20.80;67.70;;;20.03;63.09;96086.41;4261475;33;19902;-86
2022/06/11 10:07:02;;;;;;;;;;;20.70;67.80;;;19.99;63.18;96077.13;4237585;33;19901;-86
2022/06/11 10:09:35;;;;;;;;;;;20.70;67.80;;;20.00;63.58;96079.56;4261342;33;19902;-86
2022/06/11 10:12:17;;;;;;;;;;;20.70;68.00;;;19.97;63.65;96074.69;4260950;33;19909;-86
2022/06/11 10:15:00;;;;;;;;;;;20.70;68.10;;;19.97;63.74;96069.13;4261306;33;19999;-86
2022/06/11 10:17:31;;;;;;;;;;;20.70;68.30;;;19.96;63.58;96073.03;4237400;33;19909;-86
2022/06/11 10:20:04;;;;;;;;;;;20.70;68.20;;;19.96;63.63;96073.03;4260945;33;19912;-86
2022/06/11 10:22:37;;;;;;;;;;;20.60;68.10;;;19.93;63.69;96063.44;4237363;33;19909;-86
2022/06/11 10:25:56;;;;;;;;;;;20.60;68.30;;;19.95;63.76;96059.47;4237615;33;20075;-86
2022/06/11 10:31:48;;;;;;;;;;;20.60;68.20;;;19.93;63.91;96057.03;4132457;34;19903;-85
2022/06/11 10:34:20;;;;;;;;;;;20.60;68.20;;;19.91;63.68;96064.88;4242524;33;20132;-86
2022/06/11 10:36:53;;;;;;;;;;;20.60;68.30;;;19.92;63.57;96056.25;4239785;33;19901;-86
2022/06/11 10:39:25;;;;;;;;;;;20.60;68.30;;;19.91;63.85;96056.56;4239955;33;19902;-86
2022/06/11 10:42:00;;;;;;;;;;;20.60;68.50;;;19.91;63.80;96054.59;4239318;33;20021;-86
2022/06/11 10:44:37;;;;;;;;;;;20.60;68.50;;;19.91;63.84;96049.06;4239906;33;19902;-86
2022/06/11 10:47:18;;;;;;;;;;;20.60;68.40;;;19.91;63.84;96049.06;4263520;33;20074;-86
2022/06/11 10:49:48;;;;;;;;;;;20.60;68.40;;;19.92;64.22;96047.06;4239482;33;19992;-86
2022/06/11 10:52:52;;;;;;;;;;;;;;;;;;;;;
2022/06/11 10:56:27;;;;;;;;;;;20.60;68.60;;;19.91;63.87;96043.50;4155573;33;20138;-86
2022/06/11 10:59:09;;;;;;;;;;;20.60;68.50;;;19.93;64.17;96048.72;4183233;33;20002;-86
2022/06/11 11:01:42;;;;;;;;;;;20.60;68.60;;;19.93;64.17;96048.72;4182916;33;19909;-86
2022/06/11 11:04:28;;;;;;;;;;;20.60;68.60;;;19.94;64.20;96047.56;4206561;33;19909;-87
2022/06/11 11:07:15;;;;;;;;;;;20.60;68.60;;;19.95;64.01;96040.84;4206539;33;20234;-86
2022/06/11 11:09:43;;;;;;;;;;;20.60;68.50;;;19.96;64.25;96039.72;4183081;33;19910;-87
2022/06/11 11:12:24;;;;;;;;;;;20.60;68.60;;;19.96;63.81;96038.88;4206952;33;20177;-86
2022/06/11 11:15:11;;;;;;;;;;;20.60;68.60;;;19.98;63.83;96031.03;4183281;33;19902;-87
2022/06/11 11:17:45;;;;;;;;;;;20.60;68.50;;;19.97;63.90;96035.78;4207224;33;19926;-87
2022/06/11 11:20:32;;;;;;;;;;;20.60;68.60;;;19.98;64.35;96031.03;4182620;33;19918;-87
2022/06/11 11:23:12;;;;;;;;;;;20.70;68.80;;;19.99;64.00;96032.66;4221531;33;19910;-87
2022/06/11 11:25:43;;;;;;;;;;;20.70;68.70;;;20.00;64.49;96025.94;4239157;33;19902;-86
2022/06/11 11:28:23;;;;;;;;;;;20.70;69.60;;;20.01;63.96;96024.81;4238968;33;20143;-86
2022/06/11 11:31:08;;;;;;;;;;;20.70;68.60;;;20.02;64.04;96018.09;4262461;33;19902;-86
2022/06/11 11:33:38;;;;;;;;;;;20.70;68.60;;;20.03;63.85;96019.72;4236656;33;19902;-87
2022/06/11 11:36:20;;;;;;;;;;;20.70;68.50;;;20.05;63.96;96009.09;4262592;33;19902;-87
2022/06/11 11:39:19;;;;;;;;;;;20.70;68.50;;;20.04;63.83;96008.25;4262799;33;19959;-87
2022/06/11 11:41:54;;;;;;;;;;;20.70;68.50;;;20.04;63.91;96011.03;4181926;33;20012;-87
2022/06/11 11:44:25;;;;;;;;;;;20.70;68.40;;;20.06;63.99;96016.28;4222132;33;20001;-87
2022/06/11 11:46:54;;;;;;;;;;;20.70;68.40;;;20.05;63.93;96011.88;4238745;33;20119;-86
2022/06/11 11:49:27;;;;;;;;;;;20.70;68.40;;;20.05;63.71;96009.09;4215127;33;19903;-87
2022/06/11 11:52:03;;;;;;;;;;;20.80;68.40;;;20.03;63.81;96011.38;4205440;33;19918;-86
2022/06/11 11:54:32;;;;;;;;;;;20.80;68.40;;;20.04;63.87;96013.03;4206100;33;20230;-87